sensor_id;sensor_type;location;lat;lon;timestamp;temperature;humidity
21481;DHT22;10902;48.158;8.634;2022-10-23T00:01:47;9.20;99.90
21481;DHT22;10902;48.158;8.634;2022-10-23T00:04:18;9.20;99.90
21481;DHT22;10902;48.158;8.634;2022-10-23T00:06:45;9.10;99.90
21481;DHT22;10902;48.158;8.634;2022-10-23T00:09:12;9.10;99.90
21481;DHT22;10902;48.158;8.634;2022-10-23T00:11:40;9.10;99.90
21481;DHT22;10902;48.158;8.634;2022-10-23T00:14:07;9.00;99.90
21481;DHT22;10902;48.158;8.634;2022-10-23T00:16:33;8.90;99.90
21481;DHT22;10902;48.158;8.634;2022-10-23T00:18:59;8.70;99.90
21481;DHT22;10902;48.158;8.634;2022-10-23T00:21:24;8.70;99.90
21481;DHT22;10902;48.158;8.634;2022-10-23T00:23:50;8.70;99.90
21481;DHT22;10902;48.158;8.634;2022-10-23T00:26:16;8.70;99.90
21481;DHT22;10902;48.158;8.634;2022-10-23T00:28:42;8.60;99.90
21481;DHT22;10902;48.158;8.634;2022-10-23T00:31:08;8.70;99.90
21481;DHT22;10902;48.158;8.634;2022-10-23T00:33:35;8.80;99.90
21481;DHT22;10902;48.158;8.634;2022-10-23T00:36:06;8.80;99.90
21481;DHT22;10902;48.158;8.634;2022-10-23T00:38:33;8.80;99.90
21481;DHT22;10902;48.158;8.634;2022-10-23T00:40:59;8.90;99.90
21481;DHT22;10902;48.158;8.634;2022-10-23T00:43:27;8.80;99.90
21481;DHT22;10902;48.158;8.634;2022-10-23T00:45:53;8.90;99.90
21481;DHT22;10902;48.158;8.634;2022-10-23T00:48:19;8.90;99.90
21481;DHT22;10902;48.158;8.634;2022-10-23T00:50:46;9.00;99.90
21481;DHT22;10902;48.158;8.634;2022-10-23T00:53:13;9.00;99.90
21481;DHT22;10902;48.158;8.634;2022-10-23T00:55:42;9.00;99.90
21481;DHT22;10902;48.158;8.634;2022-10-23T00:58:13;9.10;99.90
21481;DHT22;10902;48.158;8.634;2022-10-23T01:00:54;9.10;99.90
21481;DHT22;10902;48.158;8.634;2022-10-23T01:03:24;9.10;99.90
21481;DHT22;10902;48.158;8.634;2022-10-23T01:05:56;9.00;99.90
21481;DHT22;10902;48.158;8.634;2022-10-23T01:08:38;9.00;99.90
21481;DHT22;10902;48.158;8.634;2022-10-23T01:11:09;8.90;99.90
21481;DHT22;10902;48.158;8.634;2022-10-23T01:13:46;8.90;99.90
21481;DHT22;10902;48.158;8.634;2022-10-23T01:16:25;8.90;99.90
21481;DHT22;10902;48.158;8.634;2022-10-23T01:19:05;8.80;99.90
21481;DHT22;10902;48.158;8.634;2022-10-23T01:21:34;8.80;99.90
21481;DHT22;10902;48.158;8.634;2022-10-23T01:27:25;8.60;99.90
21481;DHT22;10902;48.158;8.634;2022-10-23T01:29:53;8.60;99.90
21481;DHT22;10902;48.158;8.634;2022-10-23T01:35:04;8.60;99.90
21481;DHT22;10902;48.158;8.634;2022-10-23T01:37:48;8.60;99.90
21481;DHT22;10902;48.158;8.634;2022-10-23T01:42:51;8.60;99.90
21481;DHT22;10902;48.158;8.634;2022-10-23T01:45:33;8.50;99.90
21481;DHT22;10902;48.158;8.634;2022-10-23T01:48:02;8.50;99.90
21481;DHT22;10902;48.158;8.634;2022-10-23T01:50:29;8.50;99.90
21481;DHT22;10902;48.158;8.634;2022-10-23T01:52:56;8.50;99.90
21481;DHT22;10902;48.158;8.634;2022-10-23T01:55:22;8.50;99.90
21481;DHT22;10902;48.158;8.634;2022-10-23T01:57:49;8.60;99.90
21481;DHT22;10902;48.158;8.634;2022-10-23T02:00:18;8.60;99.90
21481;DHT22;10902;48.158;8.634;2022-10-23T02:02:46;8.70;99.90
21481;DHT22;10902;48.158;8.634;2022-10-23T02:05:25;8.70;99.90
21481;DHT22;10902;48.158;8.634;2022-10-23T02:07:52;8.70;99.90
21481;DHT22;10902;48.158;8.634;2022-10-23T02:10:18;8.70;99.90
21481;DHT22;10902;48.158;8.634;2022-10-23T02:12:56;8.70;99.90
21481;DHT22;10902;48.158;8.634;2022-10-23T02:15:35;8.70;99.90
21481;DHT22;10902;48.158;8.634;2022-10-23T02:18:17;8.80;99.90
21481;DHT22;10902;48.158;8.634;2022-10-23T02:23:33;8.80;99.90
21481;DHT22;10902;48.158;8.634;2022-10-23T02:26:18;8.70;99.90
21481;DHT22;10902;48.158;8.634;2022-10-23T02:28:51;8.70;99.90
21481;DHT22;10902;48.158;8.634;2022-10-23T02:31:21;8.70;99.90
21481;DHT22;10902;48.158;8.634;2022-10-23T02:33:47;8.70;99.90
21481;DHT22;10902;48.158;8.634;2022-10-23T02:36:13;8.70;99.90
21481;DHT22;10902;48.158;8.634;2022-10-23T02:38:41;8.80;99.90
21481;DHT22;10902;48.158;8.634;2022-10-23T02:41:24;8.70;99.90
21481;DHT22;10902;48.158;8.634;2022-10-23T02:55:03;8.70;99.90
21481;DHT22;10902;48.158;8.634;2022-10-23T02:57:37;8.70;99.90
21481;DHT22;10902;48.158;8.634;2022-10-23T03:00:13;8.60;99.90
21481;DHT22;10902;48.158;8.634;2022-10-23T03:03:09;8.90;99.90
21481;DHT22;10902;48.158;8.634;2022-10-23T03:05:38;8.80;99.90
21481;DHT22;10902;48.158;8.634;2022-10-23T03:08:08;8.90;99.90
21481;DHT22;10902;48.158;8.634;2022-10-23T03:10:34;8.80;99.90
21481;DHT22;10902;48.158;8.634;2022-10-23T03:12:59;8.70;99.90
21481;DHT22;10902;48.158;8.634;2022-10-23T03:15:25;8.80;99.90
21481;DHT22;10902;48.158;8.634;2022-10-23T03:17:51;8.80;99.90
21481;DHT22;10902;48.158;8.634;2022-10-23T03:20:17;8.80;99.90
21481;DHT22;10902;48.158;8.634;2022-10-23T03:22:42;8.90;99.90
21481;DHT22;10902;48.158;8.634;2022-10-23T03:25:08;8.90;99.90
21481;DHT22;10902;48.158;8.634;2022-10-23T03:27:34;8.80;99.90
21481;DHT22;10902;48.158;8.634;2022-10-23T03:30:00;8.80;99.90
21481;DHT22;10902;48.158;8.634;2022-10-23T03:32:26;8.80;99.90
21481;DHT22;10902;48.158;8.634;2022-10-23T03:34:51;8.70;99.90
21481;DHT22;10902;48.158;8.634;2022-10-23T03:37:17;8.60;99.90
21481;DHT22;10902;48.158;8.634;2022-10-23T03:39:42;8.50;99.90
21481;DHT22;10902;48.158;8.634;2022-10-23T03:42:08;8.60;99.90
21481;DHT22;10902;48.158;8.634;2022-10-23T03:44:34;8.50;99.90
21481;DHT22;10902;48.158;8.634;2022-10-23T03:46:59;8.50;99.90
21481;DHT22;10902;48.158;8.634;2022-10-23T03:49:25;8.60;99.90
21481;DHT22;10902;48.158;8.634;2022-10-23T03:51:51;8.70;99.90
21481;DHT22;10902;48.158;8.634;2022-10-23T03:54:25;8.90;99.90
21481;DHT22;10902;48.158;8.634;2022-10-23T03:56:52;9.00;99.90
21481;DHT22;10902;48.158;8.634;2022-10-23T03:59:17;9.00;99.90
21481;DHT22;10902;48.158;8.634;2022-10-23T04:01:43;9.00;99.90
21481;DHT22;10902;48.158;8.634;2022-10-23T04:04:10;9.10;99.90
21481;DHT22;10902;48.158;8.634;2022-10-23T04:06:35;9.20;99.90
21481;DHT22;10902;48.158;8.634;2022-10-23T04:09:01;9.10;99.90
21481;DHT22;10902;48.158;8.634;2022-10-23T04:11:27;9.20;99.90
21481;DHT22;10902;48.158;8.634;2022-10-23T04:13:52;9.10;99.90
21481;DHT22;10902;48.158;8.634;2022-10-23T04:16:18;8.90;99.90
21481;DHT22;10902;48.158;8.634;2022-10-23T04:18:44;9.00;99.90
21481;DHT22;10902;48.158;8.634;2022-10-23T04:21:10;9.00;99.90
21481;DHT22;10902;48.158;8.634;2022-10-23T04:23:36;9.00;99.90
21481;DHT22;10902;48.158;8.634;2022-10-23T04:26:01;9.00;99.90
21481;DHT22;10902;48.158;8.634;2022-10-23T04:28:27;9.00;99.90
21481;DHT22;10902;48.158;8.634;2022-10-23T04:30:53;9.00;99.90
21481;DHT22;10902;48.158;8.634;2022-10-23T04:33:19;8.80;99.90
21481;DHT22;10902;48.158;8.634;2022-10-23T04:35:45;8.90;99.90
21481;DHT22;10902;48.158;8.634;2022-10-23T04:38:10;9.00;99.90
21481;DHT22;10902;48.158;8.634;2022-10-23T04:40:36;9.00;99.90
21481;DHT22;10902;48.158;8.634;2022-10-23T04:43:01;9.10;99.90
21481;DHT22;10902;48.158;8.634;2022-10-23T04:45:27;8.70;99.90
21481;DHT22;10902;48.158;8.634;2022-10-23T04:47:53;8.70;99.90
21481;DHT22;10902;48.158;8.634;2022-10-23T04:50:19;8.90;99.90
21481;DHT22;10902;48.158;8.634;2022-10-23T04:52:45;9.00;99.90
21481;DHT22;10902;48.158;8.634;2022-10-23T04:55:11;9.10;99.90
21481;DHT22;10902;48.158;8.634;2022-10-23T04:57:36;9.00;99.90
21481;DHT22;10902;48.158;8.634;2022-10-23T05:00:08;8.70;99.90
21481;DHT22;10902;48.158;8.634;2022-10-23T05:02:34;8.80;99.90
21481;DHT22;10902;48.158;8.634;2022-10-23T05:04:59;8.70;99.90
21481;DHT22;10902;48.158;8.634;2022-10-23T05:07:25;8.50;99.90
21481;DHT22;10902;48.158;8.634;2022-10-23T05:09:50;8.80;99.90
21481;DHT22;10902;48.158;8.634;2022-10-23T05:12:16;8.50;99.90
21481;DHT22;10902;48.158;8.634;2022-10-23T05:14:42;8.50;99.90
21481;DHT22;10902;48.158;8.634;2022-10-23T05:17:15;8.50;99.90
21481;DHT22;10902;48.158;8.634;2022-10-23T05:19:47;8.40;99.90
21481;DHT22;10902;48.158;8.634;2022-10-23T05:22:14;8.40;99.90
21481;DHT22;10902;48.158;8.634;2022-10-23T05:24:39;8.50;99.90
21481;DHT22;10902;48.158;8.634;2022-10-23T05:27:05;8.50;99.90
21481;DHT22;10902;48.158;8.634;2022-10-23T05:29:31;8.40;99.90
21481;DHT22;10902;48.158;8.634;2022-10-23T05:32:01;8.40;99.90
21481;DHT22;10902;48.158;8.634;2022-10-23T05:34:28;8.40;99.90
21481;DHT22;10902;48.158;8.634;2022-10-23T05:36:55;8.40;99.90
21481;DHT22;10902;48.158;8.634;2022-10-23T05:39:21;8.40;99.90
21481;DHT22;10902;48.158;8.634;2022-10-23T05:41:47;8.30;99.90
21481;DHT22;10902;48.158;8.634;2022-10-23T05:44:13;8.30;99.90
21481;DHT22;10902;48.158;8.634;2022-10-23T05:46:42;8.30;99.90
21481;DHT22;10902;48.158;8.634;2022-10-23T05:49:08;8.30;99.90
21481;DHT22;10902;48.158;8.634;2022-10-23T05:51:38;8.30;99.90
21481;DHT22;10902;48.158;8.634;2022-10-23T05:54:05;8.30;99.90
21481;DHT22;10902;48.158;8.634;2022-10-23T05:56:38;8.30;99.90
21481;DHT22;10902;48.158;8.634;2022-10-23T05:59:06;8.40;99.90
21481;DHT22;10902;48.158;8.634;2022-10-23T06:01:32;8.40;99.90
21481;DHT22;10902;48.158;8.634;2022-10-23T06:03:59;8.40;99.90
21481;DHT22;10902;48.158;8.634;2022-10-23T06:06:25;8.40;99.90
21481;DHT22;10902;48.158;8.634;2022-10-23T06:08:51;8.40;99.90
21481;DHT22;10902;48.158;8.634;2022-10-23T06:11:17;8.30;99.90
21481;DHT22;10902;48.158;8.634;2022-10-23T06:13:43;8.30;99.90
21481;DHT22;10902;48.158;8.634;2022-10-23T06:16:10;8.30;99.90
21481;DHT22;10902;48.158;8.634;2022-10-23T06:18:35;8.30;99.90
21481;DHT22;10902;48.158;8.634;2022-10-23T06:21:01;8.30;99.90
21481;DHT22;10902;48.158;8.634;2022-10-23T06:23:28;8.30;99.90
21481;DHT22;10902;48.158;8.634;2022-10-23T06:25:54;8.20;99.90
21481;DHT22;10902;48.158;8.634;2022-10-23T06:28:21;8.20;99.90
21481;DHT22;10902;48.158;8.634;2022-10-23T06:30:46;8.20;99.90
21481;DHT22;10902;48.158;8.634;2022-10-23T06:33:12;8.20;99.90
21481;DHT22;10902;48.158;8.634;2022-10-23T06:35:37;8.20;99.90
21481;DHT22;10902;48.158;8.634;2022-10-23T06:38:03;8.10;99.90
21481;DHT22;10902;48.158;8.634;2022-10-23T06:40:29;8.20;99.90
21481;DHT22;10902;48.158;8.634;2022-10-23T06:42:55;8.20;99.90
21481;DHT22;10902;48.158;8.634;2022-10-23T06:45:21;8.20;99.90
21481;DHT22;10902;48.158;8.634;2022-10-23T06:47:49;8.30;99.90
21481;DHT22;10902;48.158;8.634;2022-10-23T06:50:15;8.30;99.90
21481;DHT22;10902;48.158;8.634;2022-10-23T06:52:41;8.30;99.90
21481;DHT22;10902;48.158;8.634;2022-10-23T06:55:07;8.40;99.90
21481;DHT22;10902;48.158;8.634;2022-10-23T06:57:33;8.40;99.90
21481;DHT22;10902;48.158;8.634;2022-10-23T06:59:58;8.50;99.90
21481;DHT22;10902;48.158;8.634;2022-10-23T07:02:24;8.60;99.90
21481;DHT22;10902;48.158;8.634;2022-10-23T07:04:49;8.70;99.90
21481;DHT22;10902;48.158;8.634;2022-10-23T07:07:15;8.70;99.90
21481;DHT22;10902;48.158;8.634;2022-10-23T07:09:40;8.70;99.90
21481;DHT22;10902;48.158;8.634;2022-10-23T07:12:07;8.70;99.90
21481;DHT22;10902;48.158;8.634;2022-10-23T07:14:32;8.80;99.90
21481;DHT22;10902;48.158;8.634;2022-10-23T07:16:58;8.80;99.90
21481;DHT22;10902;48.158;8.634;2022-10-23T07:19:23;8.90;99.90
21481;DHT22;10902;48.158;8.634;2022-10-23T07:21:50;9.00;99.90
21481;DHT22;10902;48.158;8.634;2022-10-23T07:24:16;9.10;99.90
21481;DHT22;10902;48.158;8.634;2022-10-23T07:26:41;9.30;99.90
21481;DHT22;10902;48.158;8.634;2022-10-23T07:29:09;9.40;99.90
21481;DHT22;10902;48.158;8.634;2022-10-23T07:31:35;9.50;99.90
21481;DHT22;10902;48.158;8.634;2022-10-23T07:34:01;9.70;99.90
21481;DHT22;10902;48.158;8.634;2022-10-23T07:36:26;9.80;99.90
21481;DHT22;10902;48.158;8.634;2022-10-23T07:38:52;10.00;99.90
21481;DHT22;10902;48.158;8.634;2022-10-23T07:41:18;10.30;99.90
21481;DHT22;10902;48.158;8.634;2022-10-23T07:43:44;10.50;99.90
21481;DHT22;10902;48.158;8.634;2022-10-23T07:46:10;10.70;99.90
21481;DHT22;10902;48.158;8.634;2022-10-23T07:48:37;11.00;99.90
21481;DHT22;10902;48.158;8.634;2022-10-23T07:51:05;11.20;99.90
21481;DHT22;10902;48.158;8.634;2022-10-23T07:53:35;11.60;99.90
21481;DHT22;10902;48.158;8.634;2022-10-23T07:56:04;11.60;99.90
21481;DHT22;10902;48.158;8.634;2022-10-23T07:58:34;11.50;99.90
21481;DHT22;10902;48.158;8.634;2022-10-23T08:01:01;11.40;99.90
21481;DHT22;10902;48.158;8.634;2022-10-23T08:03:31;11.40;99.90
21481;DHT22;10902;48.158;8.634;2022-10-23T08:05:57;11.50;99.90
21481;DHT22;10902;48.158;8.634;2022-10-23T08:08:24;11.60;99.90
21481;DHT22;10902;48.158;8.634;2022-10-23T08:10:52;11.80;99.90
21481;DHT22;10902;48.158;8.634;2022-10-23T08:13:19;12.00;99.90
21481;DHT22;10902;48.158;8.634;2022-10-23T08:15:46;12.30;99.90
21481;DHT22;10902;48.158;8.634;2022-10-23T08:18:12;12.50;99.90
21481;DHT22;10902;48.158;8.634;2022-10-23T08:20:39;12.50;99.90
21481;DHT22;10902;48.158;8.634;2022-10-23T08:23:05;12.40;99.90
21481;DHT22;10902;48.158;8.634;2022-10-23T08:25:32;12.30;99.90
21481;DHT22;10902;48.158;8.634;2022-10-23T08:27:58;12.40;99.90
21481;DHT22;10902;48.158;8.634;2022-10-23T08:30:23;12.50;99.90
21481;DHT22;10902;48.158;8.634;2022-10-23T08:32:49;12.90;99.90
21481;DHT22;10902;48.158;8.634;2022-10-23T08:35:15;13.20;99.90
21481;DHT22;10902;48.158;8.634;2022-10-23T08:37:40;13.70;99.90
21481;DHT22;10902;48.158;8.634;2022-10-23T08:40:06;14.20;99.90
21481;DHT22;10902;48.158;8.634;2022-10-23T08:42:36;14.50;99.90
21481;DHT22;10902;48.158;8.634;2022-10-23T08:45:39;14.70;99.90
21481;DHT22;10902;48.158;8.634;2022-10-23T08:48:13;14.80;99.90
21481;DHT22;10902;48.158;8.634;2022-10-23T08:50:45;15.20;99.90
21481;DHT22;10902;48.158;8.634;2022-10-23T08:53:43;15.40;99.90
21481;DHT22;10902;48.158;8.634;2022-10-23T08:59:14;16.00;99.90
21481;DHT22;10902;48.158;8.634;2022-10-23T09:02:20;16.40;99.90
21481;DHT22;10902;48.158;8.634;2022-10-23T09:04:49;17.00;99.90
21481;DHT22;10902;48.158;8.634;2022-10-23T09:10:28;16.70;99.90
21481;DHT22;10902;48.158;8.634;2022-10-23T09:13:19;17.40;99.90
21481;DHT22;10902;48.158;8.634;2022-10-23T09:15:48;16.80;99.90
21481;DHT22;10902;48.158;8.634;2022-10-23T09:18:17;16.90;99.90
21481;DHT22;10902;48.158;8.634;2022-10-23T09:20:45;16.60;99.90
21481;DHT22;10902;48.158;8.634;2022-10-23T09:23:22;16.80;99.90
21481;DHT22;10902;48.158;8.634;2022-10-23T09:25:49;16.70;99.90
21481;DHT22;10902;48.158;8.634;2022-10-23T09:28:44;16.50;99.90
21481;DHT22;10902;48.158;8.634;2022-10-23T09:31:11;16.70;99.90
21481;DHT22;10902;48.158;8.634;2022-10-23T09:33:37;17.10;99.90
21481;DHT22;10902;48.158;8.634;2022-10-23T09:36:07;17.00;99.90
21481;DHT22;10902;48.158;8.634;2022-10-23T09:38:53;17.30;99.90
21481;DHT22;10902;48.158;8.634;2022-10-23T09:41:32;17.20;99.90
21481;DHT22;10902;48.158;8.634;2022-10-23T09:44:20;17.30;99.90
21481;DHT22;10902;48.158;8.634;2022-10-23T09:49:31;16.90;99.90
21481;DHT22;10902;48.158;8.634;2022-10-23T09:54:38;17.60;99.90
21481;DHT22;10902;48.158;8.634;2022-10-23T09:59:59;17.80;99.90
21481;DHT22;10902;48.158;8.634;2022-10-23T10:02:27;17.60;99.90
21481;DHT22;10902;48.158;8.634;2022-10-23T10:04:54;17.40;99.90
21481;DHT22;10902;48.158;8.634;2022-10-23T10:07:25;17.50;99.90
21481;DHT22;10902;48.158;8.634;2022-10-23T10:09:52;17.60;99.90
21481;DHT22;10902;48.158;8.634;2022-10-23T10:17:51;17.30;99.90
21481;DHT22;10902;48.158;8.634;2022-10-23T10:24:01;17.20;99.90
21481;DHT22;10902;48.158;8.634;2022-10-23T10:27:20;17.70;99.90
21481;DHT22;10902;48.158;8.634;2022-10-23T10:30:07;17.80;99.90
21481;DHT22;10902;48.158;8.634;2022-10-23T10:32:39;17.80;99.90
21481;DHT22;10902;48.158;8.634;2022-10-23T10:35:18;17.90;99.90
21481;DHT22;10902;48.158;8.634;2022-10-23T10:40:30;17.80;99.90
21481;DHT22;10902;48.158;8.634;2022-10-23T10:48:45;18.90;99.90
21481;DHT22;10902;48.158;8.634;2022-10-23T10:54:42;19.50;99.90
21481;DHT22;10902;48.158;8.634;2022-10-23T10:57:32;20.10;99.90
21481;DHT22;10902;48.158;8.634;2022-10-23T11:00:04;20.10;99.90
21481;DHT22;10902;48.158;8.634;2022-10-23T11:02:37;19.70;99.90
21481;DHT22;10902;48.158;8.634;2022-10-23T11:10:41;19.20;99.90
21481;DHT22;10902;48.158;8.634;2022-10-23T11:13:34;19.10;99.90
21481;DHT22;10902;48.158;8.634;2022-10-23T11:16:16;18.90;99.90
21481;DHT22;10902;48.158;8.634;2022-10-23T11:21:40;20.50;99.90
21481;DHT22;10902;48.158;8.634;2022-10-23T11:35:00;20.80;99.90
21481;DHT22;10902;48.158;8.634;2022-10-23T11:37:28;20.80;99.90
21481;DHT22;10902;48.158;8.634;2022-10-23T11:40:23;20.70;99.90
21481;DHT22;10902;48.158;8.634;2022-10-23T11:42:49;20.90;99.90
21481;DHT22;10902;48.158;8.634;2022-10-23T11:45:35;20.80;99.90
21481;DHT22;10902;48.158;8.634;2022-10-23T11:56:19;20.50;99.90
21481;DHT22;10902;48.158;8.634;2022-10-23T11:58:53;20.20;99.90
21481;DHT22;10902;48.158;8.634;2022-10-23T12:01:42;20.20;99.90
21481;DHT22;10902;48.158;8.634;2022-10-23T12:12:28;21.10;99.90
21481;DHT22;10902;48.158;8.634;2022-10-23T12:17:34;20.80;99.90
21481;DHT22;10902;48.158;8.634;2022-10-23T12:20:03;20.40;99.90
21481;DHT22;10902;48.158;8.634;2022-10-23T12:23:25;20.00;99.90
21481;DHT22;10902;48.158;8.634;2022-10-23T12:28:40;20.40;99.90
21481;DHT22;10902;48.158;8.634;2022-10-23T12:31:35;20.00;99.90
21481;DHT22;10902;48.158;8.634;2022-10-23T12:39:32;21.20;99.90
21481;DHT22;10902;48.158;8.634;2022-10-23T12:41:59;21.40;99.90
21481;DHT22;10902;48.158;8.634;2022-10-23T12:44:25;21.30;99.90
21481;DHT22;10902;48.158;8.634;2022-10-23T12:47:01;21.90;99.90
21481;DHT22;10902;48.158;8.634;2022-10-23T12:49:30;21.80;99.90
21481;DHT22;10902;48.158;8.634;2022-10-23T12:52:02;21.30;99.90
21481;DHT22;10902;48.158;8.634;2022-10-23T12:54:31;21.20;99.90
21481;DHT22;10902;48.158;8.634;2022-10-23T12:56:57;21.20;99.90
21481;DHT22;10902;48.158;8.634;2022-10-23T12:59:27;21.10;99.90
21481;DHT22;10902;48.158;8.634;2022-10-23T13:01:55;20.80;99.90
21481;DHT22;10902;48.158;8.634;2022-10-23T13:04:29;20.50;99.90
21481;DHT22;10902;48.158;8.634;2022-10-23T13:06:59;20.30;99.90
21481;DHT22;10902;48.158;8.634;2022-10-23T13:09:32;20.10;99.90
21481;DHT22;10902;48.158;8.634;2022-10-23T13:12:01;20.00;99.90
21481;DHT22;10902;48.158;8.634;2022-10-23T13:14:30;20.00;99.90
21481;DHT22;10902;48.158;8.634;2022-10-23T13:17:08;20.00;99.90
21481;DHT22;10902;48.158;8.634;2022-10-23T13:19:35;20.00;99.90
21481;DHT22;10902;48.158;8.634;2022-10-23T13:22:04;19.80;99.90
21481;DHT22;10902;48.158;8.634;2022-10-23T13:24:39;19.60;99.90
21481;DHT22;10902;48.158;8.634;2022-10-23T13:29:55;19.50;99.90
21481;DHT22;10902;48.158;8.634;2022-10-23T13:32:23;19.30;99.90
21481;DHT22;10902;48.158;8.634;2022-10-23T13:34:52;19.20;99.90
21481;DHT22;10902;48.158;8.634;2022-10-23T13:37:25;19.20;99.90
21481;DHT22;10902;48.158;8.634;2022-10-23T13:39:59;19.10;99.90
21481;DHT22;10902;48.158;8.634;2022-10-23T13:42:25;19.10;99.90
21481;DHT22;10902;48.158;8.634;2022-10-23T13:44:51;19.20;99.90
21481;DHT22;10902;48.158;8.634;2022-10-23T13:47:17;19.30;99.90
21481;DHT22;10902;48.158;8.634;2022-10-23T13:49:42;19.40;99.90
21481;DHT22;10902;48.158;8.634;2022-10-23T13:52:11;19.40;99.90
21481;DHT22;10902;48.158;8.634;2022-10-23T13:54:37;19.40;99.90
21481;DHT22;10902;48.158;8.634;2022-10-23T13:57:04;19.30;99.90
21481;DHT22;10902;48.158;8.634;2022-10-23T13:59:30;19.30;99.90
21481;DHT22;10902;48.158;8.634;2022-10-23T14:01:55;19.30;99.90
21481;DHT22;10902;48.158;8.634;2022-10-23T14:04:21;19.30;99.90
21481;DHT22;10902;48.158;8.634;2022-10-23T14:06:48;19.20;99.90
21481;DHT22;10902;48.158;8.634;2022-10-23T14:09:16;19.50;99.90
21481;DHT22;10902;48.158;8.634;2022-10-23T14:11:42;19.50;99.90
21481;DHT22;10902;48.158;8.634;2022-10-23T14:14:08;19.60;99.90
21481;DHT22;10902;48.158;8.634;2022-10-23T14:16:33;19.70;99.90
21481;DHT22;10902;48.158;8.634;2022-10-23T14:18:59;19.80;99.90
21481;DHT22;10902;48.158;8.634;2022-10-23T14:21:25;19.50;99.90
21481;DHT22;10902;48.158;8.634;2022-10-23T14:23:52;19.50;99.90
21481;DHT22;10902;48.158;8.634;2022-10-23T14:26:19;19.50;99.90
21481;DHT22;10902;48.158;8.634;2022-10-23T14:28:45;20.00;99.90
21481;DHT22;10902;48.158;8.634;2022-10-23T14:31:13;20.40;99.90
21481;DHT22;10902;48.158;8.634;2022-10-23T14:33:40;20.60;99.90
21481;DHT22;10902;48.158;8.634;2022-10-23T14:36:06;20.70;99.90
21481;DHT22;10902;48.158;8.634;2022-10-23T14:38:32;20.80;99.90
21481;DHT22;10902;48.158;8.634;2022-10-23T14:40:58;20.70;99.90
21481;DHT22;10902;48.158;8.634;2022-10-23T14:43:24;20.60;99.90
21481;DHT22;10902;48.158;8.634;2022-10-23T14:45:50;20.30;99.90
21481;DHT22;10902;48.158;8.634;2022-10-23T14:48:16;20.00;99.90
21481;DHT22;10902;48.158;8.634;2022-10-23T14:50:44;19.80;99.90
21481;DHT22;10902;48.158;8.634;2022-10-23T14:53:10;20.10;99.90
21481;DHT22;10902;48.158;8.634;2022-10-23T14:55:36;20.60;99.90
21481;DHT22;10902;48.158;8.634;2022-10-23T14:58:01;21.00;99.90
21481;DHT22;10902;48.158;8.634;2022-10-23T15:00:27;20.90;99.90
21481;DHT22;10902;48.158;8.634;2022-10-23T15:02:53;21.00;99.90
21481;DHT22;10902;48.158;8.634;2022-10-23T15:05:18;21.20;99.90
21481;DHT22;10902;48.158;8.634;2022-10-23T15:07:44;20.90;99.90
21481;DHT22;10902;48.158;8.634;2022-10-23T15:10:10;20.70;99.90
21481;DHT22;10902;48.158;8.634;2022-10-23T15:12:36;20.20;99.90
21481;DHT22;10902;48.158;8.634;2022-10-23T15:15:04;19.90;99.90
21481;DHT22;10902;48.158;8.634;2022-10-23T15:17:29;19.60;99.90
21481;DHT22;10902;48.158;8.634;2022-10-23T15:19:56;19.40;99.90
21481;DHT22;10902;48.158;8.634;2022-10-23T15:22:22;19.30;99.90
21481;DHT22;10902;48.158;8.634;2022-10-23T15:24:48;19.20;99.90
21481;DHT22;10902;48.158;8.634;2022-10-23T15:27:13;19.20;99.90
21481;DHT22;10902;48.158;8.634;2022-10-23T15:29:39;19.10;99.90
21481;DHT22;10902;48.158;8.634;2022-10-23T15:32:05;19.00;99.90
21481;DHT22;10902;48.158;8.634;2022-10-23T15:34:32;18.90;99.90
21481;DHT22;10902;48.158;8.634;2022-10-23T15:36:58;18.90;99.90
21481;DHT22;10902;48.158;8.634;2022-10-23T15:39:26;18.90;99.90
21481;DHT22;10902;48.158;8.634;2022-10-23T15:41:54;18.90;99.90
21481;DHT22;10902;48.158;8.634;2022-10-23T15:44:22;18.90;99.90
21481;DHT22;10902;48.158;8.634;2022-10-23T15:46:49;18.70;99.90
21481;DHT22;10902;48.158;8.634;2022-10-23T15:49:16;18.60;99.90
21481;DHT22;10902;48.158;8.634;2022-10-23T15:51:43;18.50;99.90
21481;DHT22;10902;48.158;8.634;2022-10-23T15:54:11;18.20;99.90
21481;DHT22;10902;48.158;8.634;2022-10-23T15:56:41;18.00;99.90
21481;DHT22;10902;48.158;8.634;2022-10-23T15:59:06;17.90;99.90
21481;DHT22;10902;48.158;8.634;2022-10-23T16:01:32;17.80;99.90
21481;DHT22;10902;48.158;8.634;2022-10-23T16:03:57;18.00;99.90
21481;DHT22;10902;48.158;8.634;2022-10-23T16:06:23;18.10;99.90
21481;DHT22;10902;48.158;8.634;2022-10-23T16:08:49;18.20;99.90
21481;DHT22;10902;48.158;8.634;2022-10-23T16:11:26;18.20;99.90
21481;DHT22;10902;48.158;8.634;2022-10-23T16:13:53;18.10;99.90
21481;DHT22;10902;48.158;8.634;2022-10-23T16:16:19;18.10;99.90
21481;DHT22;10902;48.158;8.634;2022-10-23T16:18:45;18.10;99.90
21481;DHT22;10902;48.158;8.634;2022-10-23T16:21:31;18.10;99.90
21481;DHT22;10902;48.158;8.634;2022-10-23T16:23:59;18.00;99.90
21481;DHT22;10902;48.158;8.634;2022-10-23T16:26:25;18.00;99.90
21481;DHT22;10902;48.158;8.634;2022-10-23T16:29:03;17.90;99.90
21481;DHT22;10902;48.158;8.634;2022-10-23T16:31:29;18.00;99.90
21481;DHT22;10902;48.158;8.634;2022-10-23T16:33:59;18.00;99.90
21481;DHT22;10902;48.158;8.634;2022-10-23T16:36:25;18.00;99.90
21481;DHT22;10902;48.158;8.634;2022-10-23T16:38:51;18.10;99.90
21481;DHT22;10902;48.158;8.634;2022-10-23T16:41:16;18.00;99.90
21481;DHT22;10902;48.158;8.634;2022-10-23T16:43:42;18.00;99.90
21481;DHT22;10902;48.158;8.634;2022-10-23T16:46:13;18.00;99.90
21481;DHT22;10902;48.158;8.634;2022-10-23T16:48:39;18.00;99.90
21481;DHT22;10902;48.158;8.634;2022-10-23T16:51:11;17.90;99.90
21481;DHT22;10902;48.158;8.634;2022-10-23T16:53:37;17.80;99.90
21481;DHT22;10902;48.158;8.634;2022-10-23T16:56:04;17.70;99.90
21481;DHT22;10902;48.158;8.634;2022-10-23T16:58:30;17.50;99.90
21481;DHT22;10902;48.158;8.634;2022-10-23T17:00:57;17.50;99.90
21481;DHT22;10902;48.158;8.634;2022-10-23T17:03:23;17.40;99.90
21481;DHT22;10902;48.158;8.634;2022-10-23T17:05:49;17.50;99.90
21481;DHT22;10902;48.158;8.634;2022-10-23T17:08:14;17.40;99.90
21481;DHT22;10902;48.158;8.634;2022-10-23T17:10:40;17.40;99.90
21481;DHT22;10902;48.158;8.634;2022-10-23T17:13:05;17.60;99.90
21481;DHT22;10902;48.158;8.634;2022-10-23T17:15:31;17.50;99.90
21481;DHT22;10902;48.158;8.634;2022-10-23T17:17:57;17.50;99.90
21481;DHT22;10902;48.158;8.634;2022-10-23T17:20:22;17.40;99.90
21481;DHT22;10902;48.158;8.634;2022-10-23T17:22:48;17.40;99.90
21481;DHT22;10902;48.158;8.634;2022-10-23T17:25:14;17.40;99.90
21481;DHT22;10902;48.158;8.634;2022-10-23T17:27:40;17.30;99.90
21481;DHT22;10902;48.158;8.634;2022-10-23T17:30:07;17.30;99.90
21481;DHT22;10902;48.158;8.634;2022-10-23T17:32:34;17.20;99.90
21481;DHT22;10902;48.158;8.634;2022-10-23T17:35:02;17.10;99.90
21481;DHT22;10902;48.158;8.634;2022-10-23T17:37:27;17.00;99.90